sensor_id;sensor_type;location;lat;lon;timestamp;pressure;altitude;pressure_sealevel;temperature;humidity
80118;BME280;69424;48.770;-1.564;2024-02-21T00:00:03;102495.09;;;10.10;82.91
80118;BME280;69424;48.770;-1.564;2024-02-21T00:00:39;102492.42;;;10.09;82.75
80118;BME280;69424;48.770;-1.564;2024-02-21T00:01:34;102490.86;;;10.10;83.07
80118;BME280;69424;48.770;-1.564;2024-02-21T00:02:10;102494.93;;;10.10;83.05
80118;BME280;69424;48.770;-1.564;2024-02-21T00:02:44;102492.48;;;10.11;83.18
80118;BME280;69424;48.770;-1.564;2024-02-21T00:03:19;102493.72;;;10.11;83.20
80118;BME280;69424;48.770;-1.564;2024-02-21T00:03:53;102493.87;;;10.10;83.10
80118;BME280;69424;48.770;-1.564;2024-02-21T00:04:27;102492.96;;;10.10;83.08
80118;BME280;69424;48.770;-1.564;2024-02-21T00:05:02;102493.98;;;10.08;83.02
80118;BME280;69424;48.770;-1.564;2024-02-21T00:05:36;102494.02;;;10.09;83.11
80118;BME280;69424;48.770;-1.564;2024-02-21T00:06:11;102492.27;;;10.10;82.99
80118;BME280;69424;48.770;-1.564;2024-02-21T00:06:44;102488.75;;;10.11;83.29
80118;BME280;69424;48.770;-1.564;2024-02-21T00:07:23;102486.83;;;10.11;83.12
80118;BME280;69424;48.770;-1.564;2024-02-21T00:08:00;102482.08;;;10.12;83.12
80118;BME280;69424;48.770;-1.564;2024-02-21T00:08:56;102482.83;;;10.13;83.14
80118;BME280;69424;48.770;-1.564;2024-02-21T00:09:30;102485.84;;;10.13;83.38
80118;BME280;69424;48.770;-1.564;2024-02-21T00:10:05;102491.52;;;10.14;83.26
80118;BME280;69424;48.770;-1.564;2024-02-21T00:10:41;102485.70;;;10.14;83.28
80118;BME280;69424;48.770;-1.564;2024-02-21T00:11:15;102478.48;;;10.15;83.11
80118;BME280;69424;48.770;-1.564;2024-02-21T00:11:52;102478.52;;;10.16;83.18
80118;BME280;69424;48.770;-1.564;2024-02-21T00:12:26;102476.23;;;10.16;83.30
80118;BME280;69424;48.770;-1.564;2024-02-21T00:12:59;102474.14;;;10.16;83.05
80118;BME280;69424;48.770;-1.564;2024-02-21T00:13:34;102477.35;;;10.18;83.19
80118;BME280;69424;48.770;-1.564;2024-02-21T00:14:07;102479.67;;;10.18;83.25
80118;BME280;69424;48.770;-1.564;2024-02-21T00:14:41;102478.46;;;10.19;83.18
80118;BME280;69424;48.770;-1.564;2024-02-21T00:15:14;102479.58;;;10.20;83.18
80118;BME280;69424;48.770;-1.564;2024-02-21T00:15:50;102475.71;;;10.20;83.34
80118;BME280;69424;48.770;-1.564;2024-02-21T00:16:25;102473.22;;;10.20;83.38
80118;BME280;69424;48.770;-1.564;2024-02-21T00:17:07;102465.90;;;10.18;83.28
80118;BME280;69424;48.770;-1.564;2024-02-21T00:17:43;102465.23;;;10.20;83.39
80118;BME280;69424;48.770;-1.564;2024-02-21T00:18:18;102461.64;;;10.18;83.38
80118;BME280;69424;48.770;-1.564;2024-02-21T00:18:52;102465.54;;;10.18;83.44
80118;BME280;69424;48.770;-1.564;2024-02-21T00:19:25;102464.81;;;10.18;83.39
80118;BME280;69424;48.770;-1.564;2024-02-21T00:19:59;102469.23;;;10.18;83.33
80118;BME280;69424;48.770;-1.564;2024-02-21T00:20:34;102464.61;;;10.18;83.31
80118;BME280;69424;48.770;-1.564;2024-02-21T00:21:08;102461.80;;;10.17;83.37
80118;BME280;69424;48.770;-1.564;2024-02-21T00:21:41;102458.98;;;10.18;83.43
80118;BME280;69424;48.770;-1.564;2024-02-21T00:22:18;102458.98;;;10.18;83.55
80118;BME280;69424;48.770;-1.564;2024-02-21T00:22:51;102455.98;;;10.18;83.38
80118;BME280;69424;48.770;-1.564;2024-02-21T00:23:25;102452.80;;;10.18;83.43
80118;BME280;69424;48.770;-1.564;2024-02-21T00:23:59;102455.36;;;10.20;83.49
80118;BME280;69424;48.770;-1.564;2024-02-21T00:24:33;102449.52;;;10.20;83.36
80118;BME280;69424;48.770;-1.564;2024-02-21T00:25:07;102445.27;;;10.20;83.42
80118;BME280;69424;48.770;-1.564;2024-02-21T00:25:41;102446.71;;;10.21;83.33
80118;BME280;69424;48.770;-1.564;2024-02-21T00:26:18;102449.55;;;10.21;83.44
80118;BME280;69424;48.770;-1.564;2024-02-21T00:26:51;102442.13;;;10.21;83.30
80118;BME280;69424;48.770;-1.564;2024-02-21T00:27:25;102445.11;;;10.20;83.34
80118;BME280;69424;48.770;-1.564;2024-02-21T00:27:58;102448.44;;;10.20;83.52
80118;BME280;69424;48.770;-1.564;2024-02-21T00:28:35;102448.41;;;10.19;83.40
80118;BME280;69424;48.770;-1.564;2024-02-21T00:29:10;102451.56;;;10.18;83.38
80118;BME280;69424;48.770;-1.564;2024-02-21T00:29:44;102454.34;;;10.17;83.65
80118;BME280;69424;48.770;-1.564;2024-02-21T00:30:20;102455.55;;;10.16;83.57
80118;BME280;69424;48.770;-1.564;2024-02-21T00:30:54;102458.52;;;10.15;83.62
80118;BME280;69424;48.770;-1.564;2024-02-21T00:31:27;102459.56;;;10.14;83.77
80118;BME280;69424;48.770;-1.564;2024-02-21T00:32:04;102458.14;;;10.14;83.66
80118;BME280;69424;48.770;-1.564;2024-02-21T00:32:37;102456.55;;;10.14;83.81
80118;BME280;69424;48.770;-1.564;2024-02-21T00:33:11;102457.98;;;10.15;83.88
80118;BME280;69424;48.770;-1.564;2024-02-21T00:33:44;102449.52;;;10.16;84.04
80118;BME280;69424;48.770;-1.564;2024-02-21T00:34:19;102445.35;;;10.17;84.04
80118;BME280;69424;48.770;-1.564;2024-02-21T00:34:52;102439.90;;;10.18;84.18
80118;BME280;69424;48.770;-1.564;2024-02-21T00:35:26;102433.62;;;10.20;84.20
80118;BME280;69424;48.770;-1.564;2024-02-21T00:35:59;102428.38;;;10.22;84.21
80118;BME280;69424;48.770;-1.564;2024-02-21T00:36:32;102427.92;;;10.24;84.23
80118;BME280;69424;48.770;-1.564;2024-02-21T00:37:06;102417.69;;;10.25;84.22
80118;BME280;69424;48.770;-1.564;2024-02-21T00:37:45;102416.60;;;10.29;84.41
80118;BME280;69424;48.770;-1.564;2024-02-21T00:38:21;102415.95;;;10.30;84.06
80118;BME280;69424;48.770;-1.564;2024-02-21T00:38:54;102411.39;;;10.31;84.23
80118;BME280;69424;48.770;-1.564;2024-02-21T00:39:28;102416.40;;;10.32;83.95
80118;BME280;69424;48.770;-1.564;2024-02-21T00:40:05;102421.19;;;10.33;83.77
80118;BME280;69424;48.770;-1.564;2024-02-21T00:40:39;102422.59;;;10.32;83.66
80118;BME280;69424;48.770;-1.564;2024-02-21T00:41:19;102422.53;;;10.31;83.68
80118;BME280;69424;48.770;-1.564;2024-02-21T00:41:52;102425.30;;;10.30;83.81
80118;BME280;69424;48.770;-1.564;2024-02-21T00:42:29;102422.95;;;10.28;83.69
80118;BME280;69424;48.770;-1.564;2024-02-21T00:43:05;102421.81;;;10.26;83.64
80118;BME280;69424;48.770;-1.564;2024-02-21T00:43:39;102425.13;;;10.25;83.88
80118;BME280;69424;48.770;-1.564;2024-02-21T00:44:12;102419.95;;;10.24;84.00
80118;BME280;69424;48.770;-1.564;2024-02-21T00:44:46;102417.95;;;10.22;84.02
80118;BME280;69424;48.770;-1.564;2024-02-21T00:45:20;102417.41;;;10.22;84.27
80118;BME280;69424;48.770;-1.564;2024-02-21T00:45:53;102413.69;;;10.22;84.20
80118;BME280;69424;48.770;-1.564;2024-02-21T00:46:27;102410.66;;;10.21;84.22
80118;BME280;69424;48.770;-1.564;2024-02-21T00:47:01;102410.50;;;10.21;84.27
80118;BME280;69424;48.770;-1.564;2024-02-21T00:47:34;102404.65;;;10.21;84.22
80118;BME280;69424;48.770;-1.564;2024-02-21T00:48:08;102403.77;;;10.21;84.35
80118;BME280;69424;48.770;-1.564;2024-02-21T00:48:41;102395.06;;;10.20;84.50
80118;BME280;69424;48.770;-1.564;2024-02-21T00:49:18;102399.66;;;10.20;84.29
80118;BME280;69424;48.770;-1.564;2024-02-21T00:49:51;102399.10;;;10.20;84.45
80118;BME280;69424;48.770;-1.564;2024-02-21T00:50:27;102398.70;;;10.18;84.38
80118;BME280;69424;48.770;-1.564;2024-02-21T00:51:04;102400.88;;;10.20;84.55
80118;BME280;69424;48.770;-1.564;2024-02-21T00:51:38;102401.60;;;10.20;84.57
80118;BME280;69424;48.770;-1.564;2024-02-21T00:52:12;102400.04;;;10.21;84.69
80118;BME280;69424;48.770;-1.564;2024-02-21T00:52:51;102400.42;;;10.21;84.88
80118;BME280;69424;48.770;-1.564;2024-02-21T00:53:24;102403.09;;;10.22;84.60
80118;BME280;69424;48.770;-1.564;2024-02-21T00:53:58;102394.80;;;10.22;84.70
80118;BME280;69424;48.770;-1.564;2024-02-21T00:54:31;102392.31;;;10.22;84.35
80118;BME280;69424;48.770;-1.564;2024-02-21T00:55:19;102390.20;;;10.22;84.58
80118;BME280;69424;48.770;-1.564;2024-02-21T00:55:53;102384.89;;;10.22;84.70
80118;BME280;69424;48.770;-1.564;2024-02-21T00:56:37;102385.98;;;10.23;84.73
80118;BME280;69424;48.770;-1.564;2024-02-21T00:57:10;102382.08;;;10.23;84.57
80118;BME280;69424;48.770;-1.564;2024-02-21T00:57:44;102385.07;;;10.22;84.52
80118;BME280;69424;48.770;-1.564;2024-02-21T00:58:20;102385.09;;;10.23;84.54
80118;BME280;69424;48.770;-1.564;2024-02-21T00:58:54;102384.21;;;10.23;84.61
80118;BME280;69424;48.770;-1.564;2024-02-21T00:59:31;102383.50;;;10.23;84.50
80118;BME280;69424;48.770;-1.564;2024-02-21T01:00:05;102386.34;;;10.23;84.62
80118;BME280;69424;48.770;-1.564;2024-02-21T01:00:42;102382.13;;;10.24;84.77
80118;BME280;69424;48.770;-1.564;2024-02-21T01:01:22;102382.88;;;10.25;84.82
80118;BME280;69424;48.770;-1.564;2024-02-21T01:01:56;102375.45;;;10.25;84.71
80118;BME280;69424;48.770;-1.564;2024-02-21T01:02:33;102373.00;;;10.26;84.77
80118;BME280;69424;48.770;-1.564;2024-02-21T01:03:08;102374.44;;;10.27;84.60
80118;BME280;69424;48.770;-1.564;2024-02-21T01:03:41;102371.95;;;10.26;84.58
80118;BME280;69424;48.770;-1.564;2024-02-21T01:04:17;102367.88;;;10.26;84.57
80118;BME280;69424;48.770;-1.564;2024-02-21T01:04:54;102365.76;;;10.26;84.62
80118;BME280;69424;48.770;-1.564;2024-02-21T01:05:28;102363.45;;;10.26;84.45
80118;BME280;69424;48.770;-1.564;2024-02-21T01:06:05;102362.56;;;10.25;84.47
80118;BME280;69424;48.770;-1.564;2024-02-21T01:06:39;102360.78;;;10.26;84.56
80118;BME280;69424;48.770;-1.564;2024-02-21T01:07:18;102365.04;;;10.25;84.69
80118;BME280;69424;48.770;-1.564;2024-02-21T01:07:52;102366.64;;;10.26;84.86
80118;BME280;69424;48.770;-1.564;2024-02-21T01:08:25;102361.09;;;10.25;84.69
80118;BME280;69424;48.770;-1.564;2024-02-21T01:08:59;102362.34;;;10.24;84.69
80118;BME280;69424;48.770;-1.564;2024-02-21T01:09:34;102363.20;;;10.24;84.65
80118;BME280;69424;48.770;-1.564;2024-02-21T01:10:08;102363.85;;;10.22;84.70
80118;BME280;69424;48.770;-1.564;2024-02-21T01:10:42;102364.36;;;10.21;84.75
80118;BME280;69424;48.770;-1.564;2024-02-21T01:11:18;102362.04;;;10.21;84.80
80118;BME280;69424;48.770;-1.564;2024-02-21T01:11:52;102359.19;;;10.20;84.72
80118;BME280;69424;48.770;-1.564;2024-02-21T01:12:26;102360.08;;;10.20;84.77
80118;BME280;69424;48.770;-1.564;2024-02-21T01:12:59;102358.64;;;10.20;84.85
80118;BME280;69424;48.770;-1.564;2024-02-21T01:13:34;102356.00;;;10.21;84.88
80118;BME280;69424;48.770;-1.564;2024-02-21T01:14:10;102355.84;;;10.21;84.99
80118;BME280;69424;48.770;-1.564;2024-02-21T01:14:44;102350.91;;;10.21;85.04
80118;BME280;69424;48.770;-1.564;2024-02-21T01:15:23;102348.82;;;10.22;85.14
80118;BME280;69424;48.770;-1.564;2024-02-21T01:15:57;102352.73;;;10.23;85.02
80118;BME280;69424;48.770;-1.564;2024-02-21T01:16:35;102350.64;;;10.23;85.02
80118;BME280;69424;48.770;-1.564;2024-02-21T01:17:09;102350.84;;;10.24;85.01
80118;BME280;69424;48.770;-1.564;2024-02-21T01:17:43;102346.75;;;10.24;84.94
80118;BME280;69424;48.770;-1.564;2024-02-21T01:18:17;102341.80;;;10.24;85.19
80118;BME280;69424;48.770;-1.564;2024-02-21T01:18:53;102338.63;;;10.24;84.97
80118;BME280;69424;48.770;-1.564;2024-02-21T01:19:27;102342.71;;;10.24;84.93
80118;BME280;69424;48.770;-1.564;2024-02-21T01:20:00;102337.57;;;10.24;84.87
80118;BME280;69424;48.770;-1.564;2024-02-21T01:20:34;102341.83;;;10.25;85.16
80118;BME280;69424;48.770;-1.564;2024-02-21T01:21:08;102340.77;;;10.25;85.01
80118;BME280;69424;48.770;-1.564;2024-02-21T01:21:43;102340.77;;;10.24;84.86
80118;BME280;69424;48.770;-1.564;2024-02-21T01:22:19;102340.75;;;10.24;84.93
80118;BME280;69424;48.770;-1.564;2024-02-21T01:22:52;102339.86;;;10.24;84.98
80118;BME280;69424;48.770;-1.564;2024-02-21T01:23:27;102341.80;;;10.24;85.00
80118;BME280;69424;48.770;-1.564;2024-02-21T01:24:00;102341.80;;;10.23;84.98
80118;BME280;69424;48.770;-1.564;2024-02-21T01:24:42;102341.43;;;10.23;85.11
80118;BME280;69424;48.770;-1.564;2024-02-21T01:25:20;102337.46;;;10.21;84.98
80118;BME280;69424;48.770;-1.564;2024-02-21T01:25:53;102340.33;;;10.22;85.12
80118;BME280;69424;48.770;-1.564;2024-02-21T01:26:30;102341.77;;;10.23;85.04
80118;BME280;69424;48.770;-1.564;2024-02-21T01:27:06;102339.63;;;10.23;85.09
80118;BME280;69424;48.770;-1.564;2024-02-21T01:27:39;102336.81;;;10.22;85.17
80118;BME280;69424;48.770;-1.564;2024-02-21T01:28:15;102338.05;;;10.22;85.16
80118;BME280;69424;48.770;-1.564;2024-02-21T01:28:54;102337.87;;;10.23;85.03
80118;BME280;69424;48.770;-1.564;2024-02-21T01:29:27;102337.34;;;10.23;85.23
80118;BME280;69424;48.770;-1.564;2024-02-21T01:30:00;102334.51;;;10.22;85.13
80118;BME280;69424;48.770;-1.564;2024-02-21T01:30:35;102331.36;;;10.23;85.21
80118;BME280;69424;48.770;-1.564;2024-02-21T01:31:08;102334.39;;;10.24;85.34
80118;BME280;69424;48.770;-1.564;2024-02-21T01:31:41;102331.56;;;10.25;85.29
80118;BME280;69424;48.770;-1.564;2024-02-21T01:32:15;102333.04;;;10.26;85.51
80118;BME280;69424;48.770;-1.564;2024-02-21T01:32:51;102326.16;;;10.26;85.43
80118;BME280;69424;48.770;-1.564;2024-02-21T01:33:24;102323.35;;;10.27;85.59
80118;BME280;69424;48.770;-1.564;2024-02-21T01:34:01;102327.44;;;10.28;85.32
80118;BME280;69424;48.770;-1.564;2024-02-21T01:34:37;102327.08;;;10.27;85.31
80118;BME280;69424;48.770;-1.564;2024-02-21T01:35:11;102325.48;;;10.27;85.24
80118;BME280;69424;48.770;-1.564;2024-02-21T01:35:49;102326.39;;;10.28;85.37
80118;BME280;69424;48.770;-1.564;2024-02-21T01:36:23;102327.45;;;10.28;85.55
80118;BME280;69424;48.770;-1.564;2024-02-21T01:36:57;102326.93;;;10.28;85.33
80118;BME280;69424;48.770;-1.564;2024-02-21T01:37:30;102329.24;;;10.28;85.42
80118;BME280;69424;48.770;-1.564;2024-02-21T01:38:04;102327.31;;;10.29;85.29
80118;BME280;69424;48.770;-1.564;2024-02-21T01:38:38;102324.84;;;10.29;85.23
80118;BME280;69424;48.770;-1.564;2024-02-21T01:39:11;102323.96;;;10.30;85.30
80118;BME280;69424;48.770;-1.564;2024-02-21T01:39:45;102323.79;;;10.30;85.27
80118;BME280;69424;48.770;-1.564;2024-02-21T01:40:18;102317.27;;;10.30;85.42
80118;BME280;69424;48.770;-1.564;2024-02-21T01:40:55;102315.52;;;10.30;85.43
80118;BME280;69424;48.770;-1.564;2024-02-21T01:41:30;102311.99;;;10.31;85.44
80118;BME280;69424;48.770;-1.564;2024-02-21T01:42:06;102307.57;;;10.31;85.50
80118;BME280;69424;48.770;-1.564;2024-02-21T01:42:40;102310.10;;;10.32;85.55
80118;BME280;69424;48.770;-1.564;2024-02-21T01:43:17;102304.48;;;10.33;85.71
80118;BME280;69424;48.770;-1.564;2024-02-21T01:43:53;102301.31;;;10.33;85.67
80118;BME280;69424;48.770;-1.564;2024-02-21T01:44:27;102305.55;;;10.33;85.72
80118;BME280;69424;48.770;-1.564;2024-02-21T01:45:00;102302.50;;;10.32;85.75
80118;BME280;69424;48.770;-1.564;2024-02-21T01:45:37;102308.51;;;10.32;85.78
80118;BME280;69424;48.770;-1.564;2024-02-21T01:46:10;102306.35;;;10.31;85.63
80118;BME280;69424;48.770;-1.564;2024-02-21T01:46:44;102304.52;;;10.30;85.62
80118;BME280;69424;48.770;-1.564;2024-02-21T01:47:45;102308.91;;;10.28;85.74
80118;BME280;69424;48.770;-1.564;2024-02-21T01:48:25;102309.41;;;10.27;85.68
80118;BME280;69424;48.770;-1.564;2024-02-21T01:49:01;102307.05;;;10.26;85.84
80118;BME280;69424;48.770;-1.564;2024-02-21T01:49:36;102303.88;;;10.26;85.83
80118;BME280;69424;48.770;-1.564;2024-02-21T01:50:12;102304.92;;;10.26;85.86
80118;BME280;69424;48.770;-1.564;2024-02-21T01:50:55;102303.45;;;10.24;85.78
80118;BME280;69424;48.770;-1.564;2024-02-21T01:51:30;102304.37;;;10.25;85.83
80118;BME280;69424;48.770;-1.564;2024-02-21T01:52:07;102300.83;;;10.25;85.69
80118;BME280;69424;48.770;-1.564;2024-02-21T01:52:46;102298.37;;;10.25;86.01
80118;BME280;69424;48.770;-1.564;2024-02-21T01:53:24;102298.56;;;10.26;85.91
80118;BME280;69424;48.770;-1.564;2024-02-21T01:54:01;102296.81;;;10.26;86.03
80118;BME280;69424;48.770;-1.564;2024-02-21T01:54:35;102299.10;;;10.26;86.04
80118;BME280;69424;48.770;-1.564;2024-02-21T01:55:11;102304.47;;;10.28;86.24
80118;BME280;69424;48.770;-1.564;2024-02-21T01:55:47;102302.54;;;10.28;86.10
80118;BME280;69424;48.770;-1.564;2024-02-21T01:56:23;102299.05;;;10.29;86.03
80118;BME280;69424;48.770;-1.564;2024-02-21T01:56:57;102302.95;;;10.30;86.06
80118;BME280;69424;48.770;-1.564;2024-02-21T01:57:32;102302.65;;;10.32;86.05
80118;BME280;69424;48.770;-1.564;2024-02-21T01:58:08;102298.45;;;10.32;86.04
80118;BME280;69424;48.770;-1.564;2024-02-21T01:58:42;102292.10;;;10.33;86.08
80118;BME280;69424;48.770;-1.564;2024-02-21T01:59:21;102288.19;;;10.32;85.91
80118;BME280;69424;48.770;-1.564;2024-02-21T01:59:56;102287.11;;;10.32;85.75
80118;BME280;69424;48.770;-1.564;2024-02-21T02:00:30;102287.64;;;10.32;85.93
80118;BME280;69424;48.770;-1.564;2024-02-21T02:01:06;102286.21;;;10.31;85.85
80118;BME280;69424;48.770;-1.564;2024-02-21T02:01:43;102287.45;;;10.32;86.02
80118;BME280;69424;48.770;-1.564;2024-02-21T02:02:18;102281.94;;;10.31;85.94
80118;BME280;69424;48.770;-1.564;2024-02-21T02:02:53;102275.41;;;10.31;86.06
80118;BME280;69424;48.770;-1.564;2024-02-21T02:03:27;102273.95;;;10.30;86.00
80118;BME280;69424;48.770;-1.564;2024-02-21T02:04:02;102274.29;;;10.30;85.92
80118;BME280;69424;48.770;-1.564;2024-02-21T02:04:41;102269.48;;;10.28;86.02
80118;BME280;69424;48.770;-1.564;2024-02-21T02:05:28;102268.60;;;10.29;86.17
80118;BME280;69424;48.770;-1.564;2024-02-21T02:06:05;102264.00;;;10.29;86.19
80118;BME280;69424;48.770;-1.564;2024-02-21T02:06:41;102267.72;;;10.29;86.21
80118;BME280;69424;48.770;-1.564;2024-02-21T02:07:15;102264.14;;;10.28;86.35
80118;BME280;69424;48.770;-1.564;2024-02-21T02:07:48;102265.01;;;10.27;86.30
80118;BME280;69424;48.770;-1.564;2024-02-21T02:08:25;102260.02;;;10.26;86.37
80118;BME280;69424;48.770;-1.564;2024-02-21T02:09:02;102257.20;;;10.26;86.48
80118;BME280;69424;48.770;-1.564;2024-02-21T02:09:38;102255.77;;;10.26;86.36
80118;BME280;69424;48.770;-1.564;2024-02-21T02:10:12;102251.37;;;10.26;86.51
80118;BME280;69424;48.770;-1.564;2024-02-21T02:10:46;102249.41;;;10.26;86.56
80118;BME280;69424;48.770;-1.564;2024-02-21T02:11:22;102244.11;;;10.26;86.79
80118;BME280;69424;48.770;-1.564;2024-02-21T02:11:57;102243.02;;;10.25;86.67
80118;BME280;69424;48.770;-1.564;2024-02-21T02:12:32;102246.90;;;10.25;86.59
80118;BME280;69424;48.770;-1.564;2024-02-21T02:13:08;102246.36;;;10.25;86.74
80118;BME280;69424;48.770;-1.564;2024-02-21T02:13:42;102245.45;;;10.24;86.95
80118;BME280;69424;48.770;-1.564;2024-02-21T02:14:15;102250.05;;;10.24;86.84
80118;BME280;69424;48.770;-1.564;2024-02-21T02:15:24;102243.13;;;10.23;86.88
80118;BME280;69424;48.770;-1.564;2024-02-21T02:15:58;102240.43;;;10.22;87.16
80118;BME280;69424;48.770;-1.564;2024-02-21T02:16:31;102239.90;;;10.22;86.97
80118;BME280;69424;48.770;-1.564;2024-02-21T02:17:05;102241.46;;;10.21;86.98
80118;BME280;69424;48.770;-1.564;2024-02-21T02:17:41;102238.81;;;10.21;87.28
80118;BME280;69424;48.770;-1.564;2024-02-21T02:18:17;102238.81;;;10.21;87.38
80118;BME280;69424;48.770;-1.564;2024-02-21T02:18:52;102238.11;;;10.21;87.36
80118;BME280;69424;48.770;-1.564;2024-02-21T02:19:26;102236.71;;;10.22;87.12
80118;BME280;69424;48.770;-1.564;2024-02-21T02:19:59;102237.05;;;10.22;87.15
80118;BME280;69424;48.770;-1.564;2024-02-21T02:20:34;102233.72;;;10.22;87.22
80118;BME280;69424;48.770;-1.564;2024-02-21T02:21:14;102236.39;;;10.22;87.27
80118;BME280;69424;48.770;-1.564;2024-02-21T02:22:00;102230.95;;;10.23;87.44
80118;BME280;69424;48.770;-1.564;2024-02-21T02:22:42;102227.41;;;10.24;87.49
80118;BME280;69424;48.770;-1.564;2024-02-21T02:23:25;102223.52;;;10.24;87.56
80118;BME280;69424;48.770;-1.564;2024-02-21T02:24:01;102221.23;;;10.24;87.31
80118;BME280;69424;48.770;-1.564;2024-02-21T02:24:40;102222.64;;;10.24;87.54
80118;BME280;69424;48.770;-1.564;2024-02-21T02:25:13;102221.92;;;10.23;87.36
80118;BME280;69424;48.770;-1.564;2024-02-21T02:25:47;102217.69;;;10.23;87.64
80118;BME280;69424;48.770;-1.564;2024-02-21T02:26:24;102218.58;;;10.24;87.64
80118;BME280;69424;48.770;-1.564;2024-02-21T02:27:00;102212.56;;;10.24;87.63
80118;BME280;69424;48.770;-1.564;2024-02-21T02:27:41;102205.60;;;10.22;87.91
80118;BME280;69424;48.770;-1.564;2024-02-21T02:28:15;102211.27;;;10.22;87.65
80118;BME280;69424;48.770;-1.564;2024-02-21T02:28:49;102206.48;;;10.22;87.69
80118;BME280;69424;48.770;-1.564;2024-02-21T02:29:23;102204.86;;;10.21;87.70
80118;BME280;69424;48.770;-1.564;2024-02-21T02:29:57;102201.84;;;10.20;87.55
80118;BME280;69424;48.770;-1.564;2024-02-21T02:30:34;102203.59;;;10.20;87.67
80118;BME280;69424;48.770;-1.564;2024-02-21T02:31:11;102201.96;;;10.19;87.88
80118;BME280;69424;48.770;-1.564;2024-02-21T02:31:45;102201.83;;;10.20;88.15
80118;BME280;69424;48.770;-1.564;2024-02-21T02:32:18;102198.63;;;10.20;88.42
80118;BME280;69424;48.770;-1.564;2024-02-21T02:32:54;102195.97;;;10.20;88.12
80118;BME280;69424;48.770;-1.564;2024-02-21T02:33:28;102196.31;;;10.19;88.17
80118;BME280;69424;48.770;-1.564;2024-02-21T02:34:06;102194.89;;;10.19;88.35
80118;BME280;69424;48.770;-1.564;2024-02-21T02:34:40;102195.79;;;10.20;88.26
80118;BME280;69424;48.770;-1.564;2024-02-21T02:35:14;102193.52;;;10.20;88.25
80118;BME280;69424;48.770;-1.564;2024-02-21T02:35:48;102189.29;;;10.21;88.48
80118;BME280;69424;48.770;-1.564;2024-02-21T02:36:24;102188.64;;;10.22;88.58
80118;BME280;69424;48.770;-1.564;2024-02-21T02:37:00;102188.14;;;10.23;88.56
80118;BME280;69424;48.770;-1.564;2024-02-21T02:37:33;102189.42;;;10.24;88.69
80118;BME280;69424;48.770;-1.564;2024-02-21T02:38:07;102186.23;;;10.24;88.44
80118;BME280;69424;48.770;-1.564;2024-02-21T02:38:45;102187.15;;;10.25;88.30
80118;BME280;69424;48.770;-1.564;2024-02-21T02:39:18;102188.39;;;10.25;88.11
80118;BME280;69424;48.770;-1.564;2024-02-21T02:39:54;102186.10;;;10.26;88.30
80118;BME280;69424;48.770;-1.564;2024-02-21T02:40:27;102185.21;;;10.26;88.20
80118;BME280;69424;48.770;-1.564;2024-02-21T02:41:01;102182.08;;;10.27;88.25
80118;BME280;69424;48.770;-1.564;2024-02-21T02:41:36;102184.04;;;10.27;88.13
80118;BME280;69424;48.770;-1.564;2024-02-21T02:42:12;102186.17;;;10.27;88.04
80118;BME280;69424;48.770;-1.564;2024-02-21T02:42:46;102187.41;;;10.28;88.20
80118;BME280;69424;48.770;-1.564;2024-02-21T02:43:23;102185.62;;;10.27;88.45
80118;BME280;69424;48.770;-1.564;2024-02-21T02:43:57;102181.17;;;10.26;88.15
80118;BME280;69424;48.770;-1.564;2024-02-21T02:44:31;102177.95;;;10.25;88.14
80118;BME280;69424;48.770;-1.564;2024-02-21T02:45:05;102179.90;;;10.26;88.23
80118;BME280;69424;48.770;-1.564;2024-02-21T02:45:39;102181.34;;;10.26;88.42
80118;BME280;69424;48.770;-1.564;2024-02-21T02:46:12;102178.15;;;10.26;88.41
80118;BME280;69424;48.770;-1.564;2024-02-21T02:46:46;102180.10;;;10.26;88.29
80118;BME280;69424;48.770;-1.564;2024-02-21T02:47:27;102177.80;;;10.26;88.33
80118;BME280;69424;48.770;-1.564;2024-02-21T02:48:00;102179.01;;;10.25;88.19
80118;BME280;69424;48.770;-1.564;2024-02-21T02:48:34;102180.27;;;10.26;88.23
80118;BME280;69424;48.770;-1.564;2024-02-21T02:49:07;102179.56;;;10.26;88.39
80118;BME280;69424;48.770;-1.564;2024-02-21T02:49:41;102178.14;;;10.26;88.26
80118;BME280;69424;48.770;-1.564;2024-02-21T02:50:14;102177.60;;;10.25;88.20
80118;BME280;69424;48.770;-1.564;2024-02-21T02:50:48;102180.61;;;10.25;88.19
80118;BME280;69424;48.770;-1.564;2024-02-21T02:51:23;102182.02;;;10.25;88.20
80118;BME280;69424;48.770;-1.564;2024-02-21T02:51:57;102183.09;;;10.26;88.11
80118;BME280;69424;48.770;-1.564;2024-02-21T02:52:33;102177.60;;;10.25;88.38
80118;BME280;69424;48.770;-1.564;2024-02-21T02:53:14;102177.96;;;10.26;88.54
80118;BME280;69424;48.770;-1.564;2024-02-21T02:53:47;102170.91;;;10.26;88.54
80118;BME280;69424;48.770;-1.564;2024-02-21T02:54:24;102166.69;;;10.27;88.64
80118;BME280;69424;48.770;-1.564;2024-02-21T02:54:57;102160.54;;;10.28;88.77
80118;BME280;69424;48.770;-1.564;2024-02-21T02:55:31;102161.24;;;10.28;88.87
80118;BME280;69424;48.770;-1.564;2024-02-21T02:56:04;102158.08;;;10.28;89.00
80118;BME280;69424;48.770;-1.564;2024-02-21T02:56:39;102160.38;;;10.28;88.92
80118;BME280;69424;48.770;-1.564;2024-02-21T02:57:12;102163.38;;;10.28;88.72
80118;BME280;69424;48.770;-1.564;2024-02-21T02:57:47;102166.35;;;10.27;88.69
80118;BME280;69424;48.770;-1.564;2024-02-21T02:58:21;102167.21;;;10.27;88.60
80118;BME280;69424;48.770;-1.564;2024-02-21T02:59:00;102160.45;;;10.26;88.83
80118;BME280;69424;48.770;-1.564;2024-02-21T02:59:33;102164.19;;;10.26;88.65
80118;BME280;69424;48.770;-1.564;2024-02-21T03:00:11;102168.60;;;10.26;88.74
80118;BME280;69424;48.770;-1.564;2024-02-21T03:00:44;102167.17;;;10.26;88.62
80118;BME280;69424;48.770;-1.564;2024-02-21T03:01:18;102161.87;;;10.26;88.66
80118;BME280;69424;48.770;-1.564;2024-02-21T03:01:54;102165.06;;;10.26;88.73
80118;BME280;69424;48.770;-1.564;2024-02-21T03:02:27;102163.48;;;10.26;88.63
80118;BME280;69424;48.770;-1.564;2024-02-21T03:03:01;102163.99;;;10.26;88.51